»·PEaware :: N4122T KSAN-KLGB

N4122T :: KSAN-KLGB

FLIGHT INFORMATION

Flight Status: Arrived
Operator: Privately registered:
United States
More flights under this callsign
Pilot: Ulli W. (2180)
Aircraft: CESSNA 172 SKYHAWK
(C172)
More flights by this aircraft type
Origin: KSAN San Diego Intl-Lindbergh
United States
Destination: KLGB Long Beach
United States
More flights between these airports :: More routes between these airports
Route: OCN V23 SLI
File this flight plan on PilotEdge
Remarks:
Altitude:
(Current/Filed)
0ft
Speed:
(Current/Filed)
0kts
Departed: 08-Nov-19 08:11 AM
Arrived: 08-Nov-19 08:52 AM
Distance/Time
Traveled:
81nm/0:41
Distance/Time
To Go:
Arrived

Flight Plot

Page will automatically refresh every two minutes.


Map Options




Map Legend


Flown Route
Filed Route
Departure Airport
Arrival Airport
Navaid (VOR, NDB)
Fix

Horizontal Profiles

Position Reports

Time Latitude Longitude Heading Altitude Ground
Speed
08-Nov-19 08:04 32.733205 -117.195877 2 21ft 0kts
08-Nov-19 08:05 32.733205 -117.195877 2 21ft 0kts
08-Nov-19 08:06 32.733205 -117.195877 2 21ft 0kts
08-Nov-19 08:07 32.733541 -117.193961 105 21ft 21kts
08-Nov-19 08:08 32.731619 -117.185904 107 21ft 27kts
08-Nov-19 08:09 32.729525 -117.177281 106 21ft 20kts
08-Nov-19 08:10 32.729503 -117.176704 75 21ft 0kts
08-Nov-19 08:11 32.731469 -117.180937 287 33ft 83kts
08-Nov-19 08:12 32.745927 -117.202157 322 1102ft 89kts
08-Nov-19 08:13 32.765751 -117.220580 323 1934ft 108kts
08-Nov-19 08:14 32.791665 -117.244422 323 2093ft 110kts
08-Nov-19 08:15 32.809371 -117.261394 322 3360ft 71kts
08-Nov-19 08:16 32.825968 -117.277701 331 3993ft 104kts
08-Nov-19 08:17 32.850212 -117.286110 341 5009ft 78kts
08-Nov-19 08:18 32.869160 -117.295117 341 5815ft 81kts
08-Nov-19 08:19 32.895421 -117.306966 342 6006ft 119kts
08-Nov-19 08:20 32.927631 -117.320904 342 6006ft 124kts
08-Nov-19 08:20 32.955056 -117.332589 342 5960ft 123kts
08-Nov-19 08:22 32.992708 -117.348567 342 5958ft 123kts
08-Nov-19 08:22 33.044494 -117.370402 342 5955ft 123kts
08-Nov-19 08:23 33.108820 -117.397404 343 5953ft 123kts
08-Nov-19 08:25 33.161457 -117.412405 4 5955ft 121kts
08-Nov-19 08:25 33.189673 -117.413879 358 5959ft 122kts
08-Nov-19 08:26 33.223647 -117.416486 358 5964ft 122kts
08-Nov-19 08:27 33.253144 -117.432550 316 5966ft 125kts
08-Nov-19 08:28 33.278175 -117.461841 318 5971ft 125kts
08-Nov-19 08:29 33.318749 -117.508951 318 5978ft 126kts
08-Nov-19 08:30 33.367980 -117.566415 318 5988ft 126kts
08-Nov-19 08:31 33.417093 -117.623833 319 5999ft 125kts
08-Nov-19 08:32 33.447178 -117.659068 318 6004ft 126kts
08-Nov-19 08:33 33.466639 -117.697083 297 5535ft 144kts
08-Nov-19 08:34 33.484090 -117.740814 297 4831ft 146kts
08-Nov-19 08:35 33.501973 -117.785081 297 4126ft 147kts
08-Nov-19 08:36 33.519194 -117.827403 298 3818ft 141kts
08-Nov-19 08:37 33.536868 -117.870284 298 3216ft 145kts
08-Nov-19 08:38 33.554305 -117.912124 298 2996ft 133kts
08-Nov-19 08:39 33.577699 -117.938113 347 2973ft 93kts
08-Nov-19 08:40 33.602024 -117.945430 347 2971ft 90kts
08-Nov-19 08:41 33.627296 -117.952919 347 2972ft 95kts
08-Nov-19 08:42 33.653189 -117.960489 347 2971ft 95kts
08-Nov-19 08:43 33.674668 -117.978897 317 2958ft 98kts
08-Nov-19 08:44 33.694742 -118.000652 313 2977ft 97kts
08-Nov-19 08:45 33.713935 -118.024043 313 2806ft 96kts
08-Nov-19 08:46 33.732729 -118.047503 317 2358ft 96kts
08-Nov-19 08:47 33.751821 -118.070334 316 1792ft 95kts
08-Nov-19 08:48 33.770407 -118.092479 312 1175ft 91kts
08-Nov-19 08:49 33.787356 -118.114608 321 728ft 89kts
08-Nov-19 08:50 33.804313 -118.135251 317 298ft 71kts
08-Nov-19 08:51 33.814868 -118.147921 295 64ft 26kts
08-Nov-19 08:52 33.814932 -118.150398 270 64ft 18kts
08-Nov-19 08:53 33.813308 -118.151576 221 64ft 5kts
08-Nov-19 08:54 33.812529 -118.152666 31 64ft 0kts

Navigation Log

Ident Type
Flight plan parsing failed, navigation log unavailable